Map

Track Data

SID SEASON NUMBER BASIN SUBBASIN NAME ISO_TIME NATURE LAT LON WMO_WIND WMO_PRES WMO_AGENCY TRACK_TYPE DIST2LAND LANDFALL IFLAG USA_AGENCY USA_ATCF_ID USA_LAT USA_LON USA_RECORD USA_STATUS USA_WIND USA_PRES USA_SSHS USA_R34_NE USA_R34_SE USA_R34_SW USA_R34_NW USA_R50_NE USA_R50_SE USA_R50_SW USA_R50_NW USA_R64_NE USA_R64_SE USA_R64_SW USA_R64_NW USA_POCI USA_ROCI USA_RMW USA_EYE TOKYO_LAT TOKYO_LON TOKYO_GRADE TOKYO_WIND TOKYO_PRES TOKYO_R50_DIR TOKYO_R50_LONG TOKYO_R50_SHORT TOKYO_R30_DIR TOKYO_R30_LONG TOKYO_R30_SHORT TOKYO_LAND CMA_LAT CMA_LON CMA_CAT CMA_WIND CMA_PRES HKO_LAT HKO_LON HKO_CAT HKO_WIND HKO_PRES NEWDELHI_LAT NEWDELHI_LON NEWDELHI_GRADE NEWDELHI_WIND NEWDELHI_PRES NEWDELHI_CI NEWDELHI_DP NEWDELHI_POCI REUNION_LAT REUNION_LON REUNION_TYPE REUNION_WIND REUNION_PRES REUNION_TNUM REUNION_CI REUNION_RMW REUNION_R34_NE REUNION_R34_SE REUNION_R34_SW REUNION_R34_NW REUNION_R50_NE REUNION_R50_SE REUNION_R50_SW REUNION_R50_NW REUNION_R64_NE REUNION_R64_SE REUNION_R64_SW REUNION_R64_NW BOM_LAT BOM_LON BOM_TYPE BOM_WIND BOM_PRES BOM_TNUM BOM_CI BOM_RMW BOM_R34_NE BOM_R34_SE BOM_R34_SW BOM_R34_NW BOM_R50_NE BOM_R50_SE BOM_R50_SW BOM_R50_NW BOM_R64_NE BOM_R64_SE BOM_R64_SW BOM_R64_NW BOM_ROCI BOM_POCI BOM_EYE BOM_POS_METHOD BOM_PRES_METHOD NADI_LAT NADI_LON NADI_CAT NADI_WIND NADI_PRES WELLINGTON_LAT WELLINGTON_LON WELLINGTON_WIND WELLINGTON_PRES DS824_LAT DS824_LON DS824_STAGE DS824_WIND DS824_PRES TD9636_LAT TD9636_LON TD9636_STAGE TD9636_WIND TD9636_PRES TD9635_LAT TD9635_LON TD9635_WIND TD9635_PRES TD9635_ROCI NEUMANN_LAT NEUMANN_LON NEUMANN_CLASS NEUMANN_WIND NEUMANN_PRES MLC_LAT MLC_LON MLC_CLASS MLC_WIND MLC_PRES USA_GUST BOM_GUST BOM_GUST_PER REUNION_GUST REUNION_GUST_PER USA_SEAHGT USA_SEARAD_NE USA_SEARAD_SE USA_SEARAD_SW USA_SEARAD_NW STORM_SPEED STORM_DIR
1963336S05073 1964 113 SI MM AMANDA 1963-12-01 12:00:00 TS -5.40000 72.7000 reunion spur-merge 1531 1531 _____O______O_ -1 -5.40000 72.7000 2 9.90000 -5.40000 72.7000 TC 20 2 241
1963336S05073 1964 113 SI MM AMANDA 1963-12-01 15:00:00 TS -5.45000 72.6125 spur-merge 1537 1537 _____P______P_ -1 -5.45000 72.6125 2 -5.45000 72.6125 TC 22 2 243
1963336S05073 1964 113 SI MM AMANDA 1963-12-01 18:00:00 TS -5.50000 72.5000 reunion spur-merge 1553 1553 _____O______O_ -1 -5.50000 72.5000 99 9.90000 -5.50000 72.5000 TC 25 3 249
1963336S05073 1964 113 SI MM AMANDA 1963-12-01 21:00:00 TS -5.55001 72.3500 spur-merge 1559 1574 _____P______P_ -1 -5.55001 72.3500 99 -5.55001 72.3500 TC 25 3 251
1963336S05073 1964 113 SI MM AMANDA 1963-12-02 00:00:00 TS -5.60000 72.2000 reunion spur-merge 1581 1581 _____O______O_ -1 -5.60000 72.2000 99 9.90000 -5.60000 72.2000 TC 25 3 247
1963336S05073 1964 113 SI MM AMANDA 1963-12-02 03:00:00 TS -5.65749 72.0925 spur-merge 1596 1596 _____P______P_ -1 -5.65749 72.0925 99 -5.65749 72.0925 TC 27 2 243
1963336S05073 1964 113 SI MM AMANDA 1963-12-02 06:00:00 TS -5.70000 72.0000 reunion spur-merge 1603 1603 _____O______O_ -1 -5.70000 72.0000 99 9.90000 -5.70000 72.0000 TC 30 2 257
1963336S05073 1964 113 SI MM AMANDA 1963-12-02 09:00:00 TS -5.70000 71.9000 spur-merge 1609 1609 _____P______P_ -1 -5.70000 71.9000 99 -5.70000 71.9000 TC 30 2 270
1963336S05073 1964 113 SI MM AMANDA 1963-12-02 12:00:00 TS -5.70000 71.8000 reunion spur-merge 1615 1615 _____O______O_ -1 -5.70000 71.8000 2 9.90000 -5.70000 71.8000 TC 30 2 257
1963336S05073 1964 113 SI MM AMANDA 1963-12-02 15:00:00 TS -5.74249 71.7075 spur-merge 1622 1622 _____P______P_ -1 -5.74249 71.7075 2 -5.74249 71.7075 TC 30 2 243
1963336S05073 1964 113 SI MM AMANDA 1963-12-02 18:00:00 TS -5.80000 71.6000 reunion spur-merge 1638 1638 _____O______O_ -1 -5.80000 71.6000 99 9.90000 -5.80000 71.6000 TC 30 3 246
1963336S05073 1964 113 SI MM AMANDA 1963-12-02 21:00:00 TS -5.85751 71.4500 spur-merge 1653 1653 _____P______P_ -1 -5.85751 71.4500 99 -5.85751 71.4500 TC 30 3 251
1963336S05073 1964 113 SI MM AMANDA 1963-12-03 00:00:00 TS -5.90000 71.3000 reunion spur-merge 1666 1666 _____O______O_ -1 -5.90000 71.3000 99 9.90000 -5.90000 71.3000 TC 30 3 261
1963336S05073 1964 113 SI MM AMANDA 1963-12-03 03:00:00 TS -5.89999 71.1925 spur-merge 1673 1673 _____P______P_ -1 -5.89999 71.1925 99 -5.89999 71.1925 TC 30 2 270
1963336S05073 1964 113 SI MM AMANDA 1963-12-03 06:00:00 TS -5.90000 71.1000 reunion spur-merge 1680 1680 _____O______O_ -1 -5.90000 71.1000 99 9.90000 -5.90000 71.1000 TC 30 2 257
1963336S05073 1964 113 SI MM AMANDA 1963-12-03 09:00:00 TS -5.94249 71.0075 spur-merge 1687 1687 _____P______P_ -1 -5.94249 71.0075 99 -5.94249 71.0075 TC 30 2 243
1963336S05073 1964 113 SI MM AMANDA 1963-12-03 12:00:00 TS -6.00000 70.9000 reunion spur-merge 1702 1702 _____O______O_ -1 -6.00000 70.9000 2 9.90000 -6.00000 70.9000 TC 30 3 244
1963336S05073 1964 113 SI MM AMANDA 1963-12-03 15:00:00 TS -6.05750 70.7650 spur-merge 1718 1718 _____P______P_ -1 -6.05750 70.7650 2 -6.05750 70.7650 TC 30 3 251
1963336S05073 1964 113 SI MM AMANDA 1963-12-03 18:00:00 TS -6.10000 70.6000 reunion spur-merge 1732 1732 _____O______O_ -1 -6.10000 70.6000 99 9.90000 -6.10000 70.6000 TC 30 4 263
1963336S05073 1964 113 SI MM AMANDA 1963-12-03 21:00:00 TS -6.10001 70.3925 spur-merge 1745 1745 _____P______P_ -1 -6.10001 70.3925 99 -6.10001 70.3925 TC 30 4 270
1963336S05073 1964 113 SI MM AMANDA 1963-12-04 00:00:00 TS -6.10000 70.2000 reunion spur-merge 1760 1760 _____O______O_ -1 -6.10000 70.2000 99 9.90000 -6.10000 70.2000 TC 30 3 263
1963336S05073 1964 113 SI MM AMANDA 1963-12-04 03:00:00 TS -6.13498 70.0925 spur-merge 1767 1767 _____P______P_ -1 -6.13498 70.0925 99 -6.13498 70.0925 TC 30 2 243
1963336S05073 1964 113 SI MM AMANDA 1963-12-04 06:00:00 TS -6.20000 70.0000 reunion spur-merge 1782 1782 _____O______O_ -1 -6.20000 70.0000 99 9.90000 -6.20000 70.0000 TC 30 3 236
1963336S05073 1964 113 SI MM AMANDA 1963-12-04 09:00:00 TS -6.28499 69.8650 spur-merge 1798 1798 _____P______P_ -1 -6.28499 69.8650 99 -6.28499 69.8650 TC 30 4 236
1963336S05073 1964 113 SI MM AMANDA 1963-12-04 12:00:00 TS -6.40000 69.7000 reunion spur-merge 1821 1821 _____O______O_ -1 -6.40000 69.7000 2 9.90000 -6.40000 69.7000 TC 30 5 233
1963336S05073 1964 113 SI MM AMANDA 1963-12-04 15:00:00 TS -6.55751 69.5000 spur-merge 1852 1852 _____P______P_ -1 -6.55751 69.5000 2 -6.55751 69.5000 TC 30 5 233
1963336S05073 1964 113 SI MM AMANDA 1963-12-04 18:00:00 TS -6.70000 69.3000 reunion spur-merge 1875 1875 _____O______O_ -1 -6.70000 69.3000 99 9.90000 -6.70000 69.3000 TC 30 4 240
1963336S05073 1964 113 SI MM AMANDA 1963-12-04 21:00:00 TS -6.75747 69.1575 spur-merge 1891 1891 _____P______P_ -1 -6.75747 69.1575 99 -6.75747 69.1575 TC 30 3 251
1963336S05073 1964 113 SI MM AMANDA 1963-12-05 00:00:00 TS -6.80000 69.0000 reunion spur-merge 1906 1902 _____O______O_ -1 -6.80000 69.0000 99 9.90000 -6.80000 69.0000 TC 30 4 252
1963336S05073 1964 113 SI MM AMANDA 1963-12-05 03:00:00 TS -6.89253 68.7500 spur-merge 1902 1873 _____P______P_ -1 -6.89253 68.7500 99 -6.89253 68.7500 TC 30 5 248
1963336S05073 1964 113 SI MM AMANDA 1963-12-05 06:00:00 TS -7.00000 68.5000 reunion spur-merge 1873 1857 _____O______O_ -1 -7.00000 68.5000 99 9.90000 -7.00000 68.5000 TC 30 4 245
1963336S05073 1964 113 SI MM AMANDA 1963-12-05 09:00:00 TS -7.07746 68.3499 spur-merge 1850 1835 _____P______P_ -1 -7.07746 68.3499 99 -7.07746 68.3499 TC 30 4 236
1963336S05073 1964 113 SI MM AMANDA 1963-12-05 12:00:00 TS -7.20000 68.2000 reunion spur-merge 1835 1803 _____O______O_ -1 -7.20000 68.2000 2 9.90000 -7.20000 68.2000 TC 30 5 226
1963336S05073 1964 113 SI MM AMANDA 1963-12-05 15:00:00 TS -7.43500 67.9725 spur-merge 1803 1757 _____P______P_ -1 -7.43500 67.9725 2 -7.43500 67.9725 TC 32 7 225
1963336S05073 1964 113 SI MM AMANDA 1963-12-05 18:00:00 TS -7.70000 67.7000 reunion spur-merge 1757 1719 _____O______O_ -1 -7.70000 67.7000 99 9.90000 -7.70000 67.7000 TC 35 7 231
1963336S05073 1964 113 SI MM AMANDA 1963-12-05 21:00:00 TS -7.88499 67.4074 spur-merge 1719 1681 _____P______P_ -1 -7.88499 67.4074 99 -7.88499 67.4074 TC 35 7 236
1963336S05073 1964 113 SI MM AMANDA 1963-12-06 00:00:00 TS -8.10000 67.1000 reunion spur-merge 1681 1635 _____O______O_ -1 -8.10000 67.1000 99 9.90000 -8.10000 67.1000 TC 35 8 228
1963336S05073 1964 113 SI MM AMANDA 1963-12-06 03:00:00 TS -8.44250 66.7925 spur-merge 1635 1579 _____P______P_ -1 -8.44250 66.7925 99 -8.44250 66.7925 TC 37 9 220
1963336S05073 1964 113 SI MM AMANDA 1963-12-06 06:00:00 TS -8.80000 66.5000 reunion spur-merge 1579 1548 _____O______O_ -1 -8.80000 66.5000 99 9.90000 -8.80000 66.5000 TC 40 8 222
1963336S05073 1964 113 SI MM AMANDA 1963-12-06 09:00:00 TS -9.05747 66.2424 spur-merge 1533 1502 _____P______P_ -1 -9.05747 66.2424 99 -9.05747 66.2424 TC 42 7 225
1963336S05073 1964 113 SI MM AMANDA 1963-12-06 12:00:00 TS -9.30000 66.0000 reunion spur-merge 1502 1461 _____O______O_ -1 -9.30000 66.0000 3 9.90000 -9.30000 66.0000 TC 45 7 221
1963336S05073 1964 113 SI MM AMANDA 1963-12-06 15:00:00 TS -9.61500 65.7425 spur-merge 1455 1415 _____P______P_ -1 -9.61500 65.7425 3 -9.61500 65.7425 TC 47 8 219
1963336S05073 1964 113 SI MM AMANDA 1963-12-06 18:00:00 TS -9.90000 65.5000 reunion spur-merge 1415 1393 _____O______O_ -1 -9.90000 65.5000 99 9.90000 -9.90000 65.5000 TC 50 6 226
1963336S05073 1964 113 SI MM AMANDA 1963-12-06 21:00:00 TS -10.0500 65.2849 spur-merge 1393 1362 _____P______P_ -1 -10.0500 65.2849 99 -10.0500 65.2849 TC 52 5 233
1963336S05073 1964 113 SI MM AMANDA 1963-12-07 00:00:00 TS -10.2000 65.1000 reunion spur-merge 1362 1329 _____O______O_ -1 -10.2000 65.1000 99 9.90000 -10.2000 65.1000 TC 55 6 217
1963336S05073 1964 113 SI MM AMANDA 1963-12-07 03:00:00 TS -10.4925 64.9500 spur-merge 1322 1288 _____P______P_ -1 -10.4925 64.9500 99 -10.4925 64.9500 TC 55 7 206
1963336S05073 1964 113 SI MM AMANDA 1963-12-07 06:00:00 TS -10.8000 64.8000 reunion spur-merge 1288 1258 _____O______O_ -1 -10.8000 64.8000 99 9.90000 -10.8000 64.8000 TC 55 6 214
1963336S05073 1964 113 SI MM AMANDA 1963-12-07 09:00:00 TS -11.0000 64.6000 spur-merge 1258 1227 _____P______P_ -1 -11.0000 64.6000 99 -11.0000 64.6000 TC 55 6 224
1963336S05073 1964 113 SI MM AMANDA 1963-12-07 12:00:00 TS -11.2000 64.4000 reunion spur-merge 1227 1187 _____O______O_ -1 -11.2000 64.4000 3 9.90000 -11.2000 64.4000 TC 55 6 215
1963336S05073 1964 113 SI MM AMANDA 1963-12-07 15:00:00 TS -11.5075 64.2350 spur-merge 1187 1153 _____P______P_ -1 -11.4750 64.2376 3 -11.4750 64.2376 TC 57 7 206
1963336S05073 1964 113 SI MM AMANDA 1963-12-07 18:00:00 TS -11.8000 64.1000 reunion spur-merge 1153 1128 _____O______O_ -1 -11.8000 64.1000 99 9.90000 -11.8000 64.1000 TC 60 5 207
1963336S05073 1964 113 SI MM AMANDA 1963-12-07 21:00:00 NR -11.9575 63.9999 spur-merge 1128 ______________ -1 99 TC 4 212

About IBTrACS Database

This database is a web-friendly format of International Best Track Archive for Climate Stewardship (IBTrACS), a global best track data archive curated by NOAA dating back to 1842.

Updated: 2021-10-19